createdAt,value
2018-11-22T00:12:05.533Z,99.90
2018-11-22T00:14:46.192Z,99.90
2018-11-22T00:17:27.131Z,99.90
2018-11-22T00:20:08.208Z,99.90
2018-11-22T00:22:48.883Z,99.90
2018-11-22T00:25:29.560Z,99.90
2018-11-22T00:28:09.818Z,99.90
2018-11-22T00:30:51.074Z,99.90
2018-11-22T00:33:32.610Z,99.90
2018-11-22T00:36:13.234Z,99.90
2018-11-22T00:38:53.904Z,99.90
2018-11-22T00:41:34.702Z,99.90
2018-11-22T00:44:15.954Z,99.90
2018-11-22T00:46:57.211Z,99.90
2018-11-22T00:49:38.140Z,99.90
2018-11-22T00:52:19.484Z,99.90
2018-11-22T00:55:00.535Z,99.90
2018-11-22T00:57:41.619Z,99.90
2018-11-22T01:00:27.092Z,99.90
2018-11-22T01:03:08.215Z,99.90
2018-11-22T01:05:49.384Z,99.90
2018-11-22T01:08:30.425Z,99.90
2018-11-22T01:11:11.569Z,99.90
2018-11-22T01:13:52.750Z,99.90
2018-11-22T01:16:33.551Z,99.90
2018-11-22T01:19:23.135Z,99.90
2018-11-22T01:22:04.498Z,99.90
2018-11-22T01:24:45.093Z,99.90
2018-11-22T01:27:25.761Z,99.90
2018-11-22T01:30:06.583Z,99.90
2018-11-22T01:32:48.740Z,99.90
2018-11-22T01:35:29.818Z,99.90
2018-11-22T01:38:10.724Z,99.90
2018-11-22T01:40:51.509Z,99.90
2018-11-22T01:43:32.794Z,99.90
2018-11-22T01:46:13.720Z,99.90
2018-11-22T01:48:54.582Z,99.90
2018-11-22T01:51:35.198Z,99.90
2018-11-22T01:54:16.088Z,99.90
2018-11-22T01:56:57.491Z,99.90
2018-11-22T01:59:38.581Z,99.90
2018-11-22T02:05:09.143Z,99.90
2018-11-22T02:07:50.284Z,99.90
2018-11-22T02:10:31.531Z,99.90
2018-11-22T02:13:12.312Z,99.90
2018-11-22T02:15:53.277Z,99.90
2018-11-22T02:18:34.482Z,99.90
2018-11-22T02:21:15.223Z,99.90
2018-11-22T02:23:56.349Z,99.90
2018-11-22T02:26:37.452Z,99.90
2018-11-22T02:29:18.293Z,99.90
2018-11-22T02:31:59.153Z,99.90
2018-11-22T02:34:39.548Z,99.90
2018-11-22T02:37:20.982Z,99.90
2018-11-22T02:40:01.562Z,99.90
2018-11-22T02:42:43.495Z,99.90
2018-11-22T02:45:25.555Z,99.90
2018-11-22T02:48:06.859Z,99.90
2018-11-22T02:50:48.026Z,99.90
2018-11-22T02:53:29.345Z,99.90
2018-11-22T02:56:10.543Z,99.90
2018-11-22T02:58:51.106Z,99.90
2018-11-22T03:01:32.295Z,99.90
2018-11-22T03:04:14.306Z,99.90
2018-11-22T03:06:54.833Z,99.90
2018-11-22T03:09:36.105Z,99.90
2018-11-22T03:12:17.107Z,99.90
2018-11-22T03:14:58.325Z,99.90
2018-11-22T03:20:23.014Z,99.90
2018-11-22T03:23:03.458Z,99.90
2018-11-22T03:25:44.677Z,99.90
2018-11-22T03:28:25.339Z,99.90
2018-11-22T03:31:06.400Z,99.90
2018-11-22T03:36:32.233Z,99.90
2018-11-22T03:39:13.396Z,99.90
2018-11-22T03:41:54.596Z,99.90
2018-11-22T03:44:35.912Z,99.90
2018-11-22T03:47:16.404Z,99.90
2018-11-22T03:52:42.722Z,99.90
2018-11-22T03:58:06.726Z,99.90
2018-11-22T04:03:30.291Z,99.90
2018-11-22T04:06:11.144Z,99.90
2018-11-22T04:08:52.156Z,99.90
2018-11-22T04:11:33.177Z,99.90
2018-11-22T04:14:14.235Z,99.90
2018-11-22T04:16:55.294Z,99.90
2018-11-22T04:19:35.982Z,99.90
2018-11-22T04:22:17.077Z,99.90
2018-11-22T04:24:58.289Z,99.90
2018-11-22T04:27:39.290Z,99.90
2018-11-22T04:30:30.329Z,99.90
2018-11-22T04:33:11.303Z,99.90
2018-11-22T04:35:52.488Z,99.90
2018-11-22T04:38:33.468Z,99.90
2018-11-22T04:41:14.032Z,99.90
2018-11-22T04:46:40.386Z,99.90
2018-11-22T04:49:21.467Z,99.90
2018-11-22T04:52:02.276Z,99.90
2018-11-22T04:54:46.273Z,99.90
2018-11-22T04:57:27.049Z,99.90
2018-11-22T05:00:07.804Z,99.90
2018-11-22T05:02:51.952Z,99.90
2018-11-22T05:05:33.364Z,99.90
2018-11-22T05:08:13.997Z,99.90
2018-11-22T05:10:54.954Z,99.90
2018-11-22T05:13:35.384Z,99.90
2018-11-22T05:16:16.330Z,99.90
2018-11-22T05:18:58.729Z,99.90
2018-11-22T05:24:23.562Z,99.90
2018-11-22T05:29:48.884Z,99.90
2018-11-22T05:32:33.249Z,99.90
2018-11-22T05:35:11.903Z,99.90
2018-11-22T05:37:53.022Z,99.90
2018-11-22T05:40:34.205Z,99.90
2018-11-22T05:43:15.055Z,99.90
2018-11-22T05:45:56.352Z,99.90
2018-11-22T05:48:36.824Z,99.90
2018-11-22T05:51:17.370Z,99.90
2018-11-22T05:53:58.580Z,99.90
2018-11-22T05:56:39.498Z,99.90
2018-11-22T06:02:02.709Z,99.90
2018-11-22T06:04:43.333Z,99.90
2018-11-22T06:07:24.278Z,99.90
2018-11-22T06:10:05.713Z,99.90
2018-11-22T06:12:47.420Z,99.90
2018-11-22T06:15:30.990Z,99.90
2018-11-22T06:18:12.330Z,99.90
2018-11-22T06:23:37.113Z,99.90
2018-11-22T06:26:18.216Z,99.90
2018-11-22T06:29:03.494Z,99.90
2018-11-22T06:31:44.824Z,99.90
2018-11-22T06:34:26.188Z,99.90
2018-11-22T06:39:55.090Z,99.90
2018-11-22T06:45:20.637Z,99.90
2018-11-22T06:48:01.247Z,99.90
2018-11-22T06:50:41.774Z,99.90
2018-11-22T06:53:22.915Z,99.90
2018-11-22T06:56:04.614Z,99.90
2018-11-22T07:01:31.511Z,99.90
2018-11-22T07:04:12.176Z,99.90
2018-11-22T07:06:52.942Z,99.90
2018-11-22T07:12:17.784Z,99.90
2018-11-22T07:15:01.930Z,99.90
2018-11-22T12:18:04.853Z,99.90
2018-11-22T12:20:33.769Z,99.90
2018-11-22T12:23:02.796Z,99.90
2018-11-22T12:25:32.754Z,99.90
2018-11-22T12:37:39.140Z,99.90
2018-11-22T12:40:10.444Z,98.70
2018-11-22T12:42:46.285Z,95.90
2018-11-22T12:45:17.940Z,94.90
2018-11-22T12:51:15.523Z,91.00
2018-11-22T13:03:52.951Z,85.60
2018-11-22T13:09:17.214Z,77.60
2018-11-22T13:11:49.839Z,75.30
2018-11-22T13:14:21.314Z,77.40
2018-11-22T13:35:20.330Z,78.00
2018-11-22T13:37:53.766Z,72.20
2018-11-22T13:40:26.337Z,72.80
2018-11-22T13:43:10.043Z,75.30
2018-11-22T13:45:41.645Z,73.70
2018-11-22T13:52:01.196Z,76.30
2018-11-22T13:57:32.871Z,78.00
2018-11-22T14:00:30.537Z,79.40
2018-11-22T14:03:12.813Z,79.80
2018-11-22T14:11:38.326Z,84.20
2018-11-22T15:16:27.472Z,96.60
2018-11-22T15:56:21.929Z,99.90
2018-11-22T16:03:46.567Z,99.90
2018-11-22T16:06:24.891Z,99.90
2018-11-22T16:08:53.469Z,99.90
2018-11-22T16:11:22.077Z,99.90
2018-11-22T16:13:50.696Z,99.90
2018-11-22T16:16:19.533Z,99.90
2018-11-22T16:18:48.206Z,99.90
2018-11-22T16:21:16.740Z,99.90
2018-11-22T16:23:45.341Z,99.90
2018-11-22T16:26:13.912Z,99.90
2018-11-22T16:28:42.678Z,99.90
2018-11-22T16:31:11.812Z,99.90
2018-11-22T16:33:40.560Z,99.90
2018-11-22T16:36:15.096Z,99.90
2018-11-22T16:38:44.299Z,99.90
2018-11-22T16:41:13.033Z,99.90
2018-11-22T16:43:41.815Z,99.90
2018-11-22T16:46:11.860Z,99.90
2018-11-22T16:48:40.371Z,99.90
2018-11-22T16:53:46.193Z,99.90
2018-11-22T16:56:14.787Z,99.90
2018-11-22T16:58:43.447Z,99.90
2018-11-22T17:01:12.085Z,99.90
2018-11-22T17:03:40.718Z,99.90
2018-11-22T17:06:09.413Z,99.90
2018-11-22T17:08:38.199Z,99.90
2018-11-22T17:11:06.926Z,99.90
2018-11-22T17:13:35.550Z,99.90
2018-11-22T17:16:04.118Z,99.90
2018-11-22T17:18:32.648Z,99.90
2018-11-22T17:21:01.240Z,99.90
2018-11-22T17:23:30.051Z,99.90
2018-11-22T17:25:58.638Z,99.90
2018-11-22T17:28:27.301Z,99.90
2018-11-22T17:30:55.932Z,99.90
2018-11-22T17:33:24.449Z,99.90
2018-11-22T17:35:53.071Z,99.90
2018-11-22T17:38:21.592Z,99.90
2018-11-22T17:40:51.107Z,99.90
2018-11-22T17:43:19.650Z,99.90
2018-11-22T17:45:49.773Z,99.90
2018-11-22T17:48:18.304Z,99.90
2018-11-22T17:50:47.852Z,99.90
2018-11-22T17:53:16.456Z,99.90
2018-11-22T17:55:45.026Z,99.90
2018-11-22T17:58:14.301Z,99.90
2018-11-22T18:00:47.477Z,99.90
2018-11-22T18:03:16.098Z,99.90
2018-11-22T18:05:44.827Z,99.90
2018-11-22T18:08:13.391Z,99.90
2018-11-22T18:10:43.100Z,99.90
2018-11-22T18:13:11.705Z,99.90
2018-11-22T18:15:45.403Z,99.90
2018-11-22T18:18:15.061Z,99.90
2018-11-22T18:20:43.711Z,99.90
2018-11-22T18:23:12.451Z,99.90
2018-11-22T18:25:40.999Z,99.90
2018-11-22T18:28:09.759Z,99.90
2018-11-22T18:30:38.260Z,99.90
2018-11-22T18:33:09.703Z,99.90
2018-11-22T18:38:17.177Z,99.90
2018-11-22T18:40:46.561Z,99.90
2018-11-22T18:43:15.968Z,99.90
2018-11-22T18:45:48.457Z,99.90
2018-11-22T18:48:18.095Z,99.90
2018-11-22T18:50:47.139Z,99.90
2018-11-22T18:53:18.190Z,99.90
2018-11-22T18:55:50.432Z,99.90
2018-11-22T18:58:20.213Z,99.90
2018-11-22T19:00:50.346Z,99.90
2018-11-22T19:03:20.125Z,99.90
2018-11-22T19:05:48.772Z,99.90
2018-11-22T19:08:17.964Z,99.90
2018-11-22T19:10:50.367Z,99.90
2018-11-22T19:13:23.347Z,99.90
2018-11-22T19:15:57.315Z,99.90
2018-11-22T19:18:29.102Z,99.90
2018-11-22T19:20:57.731Z,99.90
2018-11-22T19:23:27.555Z,99.90
2018-11-22T19:25:56.262Z,99.90
2018-11-22T19:28:25.001Z,99.90
2018-11-22T19:30:53.606Z,99.90
2018-11-22T19:33:22.473Z,99.90
2018-11-22T19:35:53.713Z,99.90
2018-11-22T19:38:23.973Z,99.90
2018-11-22T19:40:52.826Z,99.90
2018-11-22T19:43:21.482Z,99.90
2018-11-22T19:45:50.452Z,99.90
2018-11-22T19:48:24.588Z,99.90
2018-11-22T19:50:53.087Z,99.90
2018-11-22T19:53:21.662Z,99.90
2018-11-22T19:55:50.210Z,99.90
2018-11-22T19:58:20.100Z,99.90
2018-11-22T20:00:48.842Z,99.90
2018-11-22T20:03:17.329Z,99.90
2018-11-22T20:05:45.963Z,99.90
2018-11-22T20:08:16.443Z,99.90
2018-11-22T20:10:45.940Z,99.90
2018-11-22T20:13:14.729Z,99.90
2018-11-22T20:15:43.767Z,99.90
2018-11-22T20:18:12.848Z,99.90
2018-11-22T20:22:49.325Z,99.90
2018-11-22T20:25:18.101Z,99.90
2018-11-22T20:27:47.129Z,99.90
2018-11-22T20:30:17.961Z,99.90
2018-11-22T20:32:47.232Z,99.90
2018-11-22T20:35:17.427Z,99.90
2018-11-22T20:37:48.148Z,99.90
2018-11-22T20:40:22.242Z,99.90
2018-11-22T20:42:51.335Z,99.90
2018-11-22T20:45:21.249Z,99.90
2018-11-22T20:47:51.933Z,99.90
2018-11-22T20:50:21.913Z,99.90
2018-11-22T20:52:50.823Z,99.90
2018-11-22T20:55:25.633Z,99.90
2018-11-22T20:57:55.806Z,99.90
2018-11-22T21:00:27.915Z,99.90
2018-11-22T21:02:57.542Z,99.90
2018-11-22T21:05:28.594Z,99.90
2018-11-22T21:07:57.267Z,99.90
2018-11-22T21:10:27.152Z,99.90
2018-11-22T21:12:55.848Z,99.90
2018-11-22T21:15:26.859Z,99.90
2018-11-22T21:18:00.858Z,99.90
2018-11-22T21:20:31.929Z,99.90
2018-11-22T21:23:00.879Z,99.90
2018-11-22T21:25:29.666Z,99.90
2018-11-22T21:27:58.426Z,99.90
2018-11-22T21:30:29.686Z,99.90
2018-11-22T21:33:02.154Z,99.90
2018-11-22T21:35:31.219Z,99.90
2018-11-22T21:38:11.043Z,99.90
2018-11-22T21:40:41.122Z,99.90
2018-11-22T21:43:09.686Z,99.90
2018-11-22T21:45:38.686Z,99.90
2018-11-22T21:48:13.013Z,99.90
2018-11-22T21:50:42.091Z,99.90
2018-11-22T21:53:11.904Z,99.90
2018-11-22T21:55:40.805Z,99.90
2018-11-22T21:58:09.522Z,99.90
2018-11-22T22:00:42.314Z,99.90
2018-11-22T22:03:11.855Z,99.90
2018-11-22T22:05:41.509Z,99.90
2018-11-22T22:08:10.187Z,99.90
2018-11-22T22:10:38.902Z,99.90
2018-11-22T22:13:07.435Z,99.90
2018-11-22T22:15:38.317Z,99.90
2018-11-22T22:18:07.791Z,99.90
2018-11-22T22:20:36.827Z,99.90
2018-11-22T22:23:05.585Z,99.90
2018-11-22T22:25:34.186Z,99.90
2018-11-22T22:28:03.123Z,99.90
2018-11-22T22:30:32.975Z,99.90
2018-11-22T22:33:03.223Z,99.90
2018-11-22T22:35:33.001Z,99.90
2018-11-22T22:38:01.731Z,99.90
2018-11-22T22:40:31.602Z,99.90
2018-11-22T22:43:00.976Z,99.90
2018-11-22T22:45:30.613Z,99.90
2018-11-22T22:48:00.916Z,99.90
2018-11-22T22:50:30.672Z,99.90
2018-11-22T22:53:00.384Z,99.90
2018-11-22T22:55:30.908Z,99.90
2018-11-22T22:58:00.152Z,99.90
2018-11-22T23:00:36.447Z,99.90
2018-11-22T23:03:06.538Z,99.90
2018-11-22T23:05:35.966Z,99.90
2018-11-22T23:08:04.594Z,99.90
2018-11-22T23:10:35.551Z,99.90
2018-11-22T23:13:04.231Z,99.90
2018-11-22T23:15:35.274Z,99.90
2018-11-22T23:18:04.075Z,99.90
2018-11-22T23:20:34.362Z,99.90
2018-11-22T23:23:03.143Z,99.90
2018-11-22T23:25:31.693Z,99.90
2018-11-22T23:28:00.357Z,99.90
2018-11-22T23:30:30.566Z,99.90
2018-11-22T23:33:01.588Z,99.90
2018-11-22T23:35:30.129Z,99.90
2018-11-22T23:38:01.415Z,99.90
2018-11-22T23:40:30.927Z,99.90
2018-11-22T23:42:59.805Z,99.90
2018-11-22T23:45:30.469Z,99.90
2018-11-22T23:47:59.082Z,99.90
2018-11-22T23:50:29.004Z,99.90
2018-11-22T23:52:58.596Z,99.90
2018-11-22T23:55:27.185Z,99.90
2018-11-22T23:57:55.777Z,99.90
